Davenport, Iowa
Current Conditions -  °F | °C
As of 7:52 AM on Friday 19 Dec 2014 (Local Time) from KDVN Reporting Station
Haze Haze  
Wind Chill: 18°   Ceiling: 7500
Heat Index: 18°   Visibility: 6mi
Dew Point: 14°   Wind: 0mph
Humidity: 84%   Direction: NA
Pressure: 30.31"   Gusts: NA
Location:  41.54°N, 90.58°W
Report Text: KDVN 191352Z AUTO 00000KT 6SM BR OVC075 M08/M10 A3031 RMK AO2 SLP277 T10781100
Loading
Personal Weather Stations






























Interactive Weather Map New forecast layout! Learn more

10-Day Weather Forecast

Advertisements
Track Severe Weather on mobile